Time;durP1;ratioP1;P1;durP2;ratioP2;P2;SDS_P1;SDS_P2;PMS_P1;PMS_P2;Temp;Humidity;BMP_temperature;BMP_pressure;BME280_temperature;BME280_humidity;BME280_pressure;Samples;Min_cycle;Max_cycle;Signal;HPM_P1;HPM_P2
2023/03/20 00:02:17;;;;;;;145.98;49.67;;;6.90;99.90;;;;;;5018060;28;20128;-89
2023/03/20 00:08:56;;;;;;;134.93;43.97;;;6.90;99.90;;;;;;5052388;28;20071;-89
2023/03/20 00:11:25;;;;;;;131.93;43.83;;;6.90;99.90;;;;;;5041643;28;20029;-89
2023/03/20 00:13:52;;;;;;;133.07;44.25;;;7.00;99.90;;;;;;5041623;28;20025;-89
2023/03/20 00:16:19;;;;;;;159.13;43.15;;;7.00;99.90;;;;;;5023425;28;20044;-88
2023/03/20 00:22:32;;;;;;;115.47;40.78;;;6.90;99.90;;;;;;5058404;28;20079;-89
2023/03/20 00:24:58;;;;;;;145.55;44.22;;;6.90;99.90;;;;;;5041029;28;20025;-89
2023/03/20 00:27:23;;;;;;;341.17;51.72;;;6.90;99.90;;;;;;5041209;28;20033;-88
2023/03/20 00:29:49;;;;;;;117.05;40.60;;;6.90;99.90;;;;;;5041174;28;20025;-89
2023/03/20 00:32:15;;;;;;;146.93;42.22;;;7.00;99.90;;;;;;5040763;28;20036;-89
2023/03/20 00:34:41;;;;;;;193.88;46.33;;;7.00;99.90;;;;;;5024553;28;20021;-89
2023/03/20 00:37:10;;;;;;;247.75;49.17;;;7.00;99.90;;;;;;5041283;28;20044;-89
2023/03/20 00:39:36;;;;;;;122.25;41.95;;;7.00;99.90;;;;;;5040691;28;20115;-89
2023/03/20 00:42:06;;;;;;;103.65;40.83;;;6.90;99.90;;;;;;5040986;28;20068;-88
2023/03/20 00:44:45;;;;;;;91.28;37.38;;;6.90;99.90;;;;;;5041507;28;20495;-88
2023/03/20 00:47:20;;;;;;;82.07;36.53;;;6.90;99.90;;;;;;5041079;28;20035;-89
2023/03/20 00:49:49;;;;;;;74.50;34.72;;;6.90;99.90;;;;;;5040676;28;20063;-89
2023/03/20 00:52:22;;;;;;;79.65;33.95;;;6.90;99.90;;;;;;5023886;28;20036;-89
2023/03/20 00:54:50;;;;;;;72.13;33.83;;;6.80;99.90;;;;;;5024385;28;20108;-89
2023/03/20 00:57:22;;;;;;;71.75;31.67;;;6.80;99.90;;;;;;5040424;28;20024;-89
2023/03/20 01:00:06;;;;;;;69.75;30.95;;;6.90;99.90;;;;;;5023725;28;20436;-89
2023/03/20 01:02:33;;;;;;;64.88;31.38;;;6.80;99.90;;;;;;5032887;28;20056;-89
2023/03/20 01:04:59;;;;;;;63.88;29.92;;;6.90;99.90;;;;;;5023279;28;20029;-88
2023/03/20 01:07:25;;;;;;;62.42;31.13;;;6.80;99.90;;;;;;5023831;28;20091;-89
2023/03/20 01:09:51;;;;;;;65.05;31.05;;;6.80;99.90;;;;;;5021398;28;20029;-89
2023/03/20 01:12:18;;;;;;;51.33;27.35;;;6.80;99.90;;;;;;5039185;28;20031;-88
2023/03/20 01:14:47;;;;;;;54.60;27.70;;;6.80;99.90;;;;;;5022582;28;20021;-89
2023/03/20 01:17:19;;;;;;;55.90;28.25;;;6.70;99.90;;;;;;5021175;28;20071;-89
2023/03/20 01:19:45;;;;;;;55.70;28.40;;;6.70;99.90;;;;;;5040732;28;20036;-88
2023/03/20 01:22:12;;;;;;;57.13;28.08;;;6.70;99.90;;;;;;5024496;28;20032;-89
2023/03/20 01:25:06;;;;;;;49.50;26.52;;;6.70;99.90;;;;;;5039993;28;20032;-89
2023/03/20 01:27:32;;;;;;;50.33;27.13;;;6.70;99.90;;;;;;5021118;28;20068;-88
2023/03/20 01:29:58;;;;;;;50.72;26.73;;;6.70;99.90;;;;;;5025420;28;20020;-89
2023/03/20 01:32:24;;;;;;;50.15;25.63;;;6.70;99.90;;;;;;5040389;28;20028;-89
2023/03/20 01:34:52;;;;;;;49.05;24.63;;;6.70;99.90;;;;;;5040578;28;20021;-88
2023/03/20 01:37:24;;;;;;;49.92;26.38;;;6.60;99.90;;;;;;5021584;28;20089;-89
2023/03/20 01:39:50;;;;;;;51.15;25.63;;;6.70;99.90;;;;;;5024754;28;20017;-88
2023/03/20 01:42:17;;;;;;;47.33;24.73;;;6.70;99.90;;;;;;5023803;28;20387;-89
2023/03/20 01:44:43;;;;;;;54.20;26.58;;;6.70;99.90;;;;;;5040398;28;20472;-89
2023/03/20 01:47:28;;;;;;;54.25;26.52;;;6.70;99.90;;;;;;5040384;28;20121;-88
2023/03/20 01:50:13;;;;;;;47.20;25.33;;;6.70;99.90;;;;;;5034599;28;20035;-88
2023/03/20 01:52:39;;;;;;;;;;;6.80;99.90;;;;;;5023377;28;20025;-89
2023/03/20 01:55:06;;;;;;;55.00;25.98;;;6.70;99.90;;;;;;5039391;28;20357;-88
2023/03/20 01:57:32;;;;;;;47.85;25.20;;;6.70;99.90;;;;;;5023102;28;20021;-88
2023/03/20 02:00:03;;;;;;;52.85;26.60;;;6.70;99.90;;;;;;5023221;28;20017;-89
2023/03/20 02:02:42;;;;;;;57.42;25.05;;;6.70;99.90;;;;;;5033612;28;20037;-88
2023/03/20 02:05:12;;;;;;;48.65;24.67;;;6.70;99.90;;;;;;5036424;28;20055;-89
2023/03/20 02:07:39;;;;;;;45.33;23.63;;;6.70;99.90;;;;;;5038828;28;20040;-87
2023/03/20 02:10:13;;;;;;;46.45;21.30;;;6.60;99.90;;;;;;5038877;28;20025;-87
2023/03/20 02:12:52;;;;;;;39.47;20.27;;;6.60;99.90;;;;;;5023683;28;20570;-88
2023/03/20 02:15:29;;;;;;;37.28;18.92;;;6.60;99.90;;;;;;5037643;28;20116;-88
2023/03/20 02:18:10;;;;;;;43.22;20.80;;;6.60;99.90;;;;;;5024314;28;20028;-88
2023/03/20 02:21:02;;;;;;;40.67;20.33;;;6.60;99.90;;;;;;5038951;28;20372;-88
2023/03/20 02:23:34;;;;;;;38.28;19.73;;;6.60;99.90;;;;;;5019820;28;20378;-88
2023/03/20 02:26:27;;;;;;;39.30;19.52;;;6.60;99.90;;;;;;5018845;28;20021;-88
2023/03/20 02:29:21;;;;;;;36.38;18.33;;;6.70;99.90;;;;;;5032844;28;20032;-89
2023/03/20 02:32:24;;;;;;;36.97;18.05;;;6.70;99.90;;;;;;5028727;28;20029;-89
2023/03/20 02:35:05;;;;;;;34.63;17.65;;;6.70;99.90;;;;;;5038183;28;20021;-89
2023/03/20 02:37:52;;;;;;;35.03;17.40;;;6.70;99.90;;;;;;5021945;28;20033;-89
2023/03/20 02:40:21;;;;;;;33.72;18.20;;;6.70;99.90;;;;;;5019090;28;20480;-88
2023/03/20 02:43:12;;;;;;;36.67;19.25;;;6.70;99.90;;;;;;5021825;28;20033;-88
2023/03/20 02:45:52;;;;;;;41.92;19.55;;;6.70;99.90;;;;;;5037864;28;20075;-88
2023/03/20 02:48:31;;;;;;;38.00;19.63;;;6.70;99.90;;;;;;5019308;28;20502;-88
2023/03/20 02:51:18;;;;;;;42.60;20.40;;;6.70;99.90;;;;;;5021062;28;20065;-89
2023/03/20 02:54:14;;;;;;;46.95;21.40;;;6.70;99.90;;;;;;5021491;28;20024;-88
2023/03/20 02:57:05;;;;;;;44.78;20.88;;;6.70;99.90;;;;;;5038690;28;20025;-88
2023/03/20 03:03:58;;;;;;;44.80;21.42;;;6.70;99.90;;;;;;5017581;28;20032;-88
2023/03/20 03:06:31;;;;;;;41.58;20.60;;;6.70;99.90;;;;;;5019918;28;20029;-88
2023/03/20 03:09:02;;;;;;;47.65;23.27;;;6.70;99.90;;;;;;5021225;28;20017;-88
2023/03/20 03:11:33;;;;;;;51.22;24.45;;;6.70;99.90;;;;;;5021205;28;20096;-88
2023/03/20 03:14:00;;;;;;;52.43;24.90;;;6.70;99.90;;;;;;5020937;28;20036;-88
2023/03/20 03:16:30;;;;;;;49.85;23.58;;;6.80;99.90;;;;;;5037842;28;20379;-87
2023/03/20 03:19:43;;;;;;;53.08;24.77;;;6.70;99.90;;;;;;5017412;28;20030;-88
2023/03/20 03:22:11;;;;;;;55.55;25.73;;;6.80;99.90;;;;;;5049700;28;20049;-88
2023/03/20 03:24:45;;;;;;;60.92;26.70;;;6.70;99.90;;;;;;5020339;28;20047;-88
2023/03/20 03:27:17;;;;;;;54.15;26.85;;;6.70;99.90;;;;;;5017535;28;20033;-89
2023/03/20 03:29:48;;;;;;;58.05;25.73;;;6.70;99.90;;;;;;5015281;28;20113;-88
2023/03/20 03:32:28;;;;;;;59.40;28.30;;;6.80;99.90;;;;;;5033183;28;20495;-88
2023/03/20 03:34:54;;;;;;;67.05;30.08;;;6.80;99.90;;;;;;5013997;28;20052;-88
2023/03/20 03:37:40;;;;;;;61.38;27.98;;;6.80;99.90;;;;;;5037944;28;20029;-89
2023/03/20 03:40:19;;;;;;;64.65;28.02;;;6.70;99.90;;;;;;5026729;28;20116;-87
2023/03/20 03:42:56;;;;;;;69.30;30.92;;;6.70;99.90;;;;;;5026339;28;20033;-88
2023/03/20 03:45:35;;;;;;;78.88;32.17;;;6.70;99.90;;;;;;5026732;28;20483;-88
2023/03/20 03:48:07;;;;;;;70.35;32.67;;;6.60;99.90;;;;;;5023683;28;20025;-88
2023/03/20 03:50:47;;;;;;;80.10;32.75;;;6.60;99.90;;;;;;5041814;28;20128;-88
2023/03/20 03:53:16;;;;;;;69.63;31.80;;;6.60;99.90;;;;;;5044050;28;20024;-88
2023/03/20 03:55:49;;;;;;;72.07;32.33;;;6.60;99.90;;;;;;5026459;28;20024;-87
2023/03/20 03:58:25;;;;;;;76.95;33.33;;;6.60;99.90;;;;;;5023285;28;20026;-88
2023/03/20 04:00:53;;;;;;;70.55;32.13;;;6.70;99.90;;;;;;5020454;28;20025;-88
2023/03/20 04:03:22;;;;;;;65.70;31.23;;;6.70;99.90;;;;;;5026663;28;20021;-88
2023/03/20 04:05:51;;;;;;;62.58;30.30;;;6.70;99.90;;;;;;5026976;28;20116;-88
2023/03/20 04:08:16;;;;;;;75.97;32.60;;;6.80;99.90;;;;;;5026885;28;20025;-89
2023/03/20 04:10:43;;;;;;;71.85;32.72;;;6.70;99.90;;;;;;5043548;28;20025;-88
2023/03/20 04:13:10;;;;;;;64.40;30.52;;;6.70;99.90;;;;;;5043113;28;20509;-88
2023/03/20 04:15:37;;;;;;;72.43;31.67;;;6.60;99.90;;;;;;5026202;28;20021;-88
2023/03/20 04:18:05;;;;;;;79.50;34.42;;;6.60;99.90;;;;;;5043404;28;20028;-89
2023/03/20 04:20:31;;;;;;;80.85;32.03;;;6.70;99.90;;;;;;5027004;28;20029;-88
2023/03/20 04:23:13;;;;;;;75.20;32.67;;;6.70;99.90;;;;;;5026465;28;20029;-88
2023/03/20 04:25:39;;;;;;;76.00;33.10;;;6.70;99.90;;;;;;5043487;28;20025;-89
2023/03/20 04:28:05;;;;;;;74.18;33.85;;;6.70;99.90;;;;;;5043779;28;20079;-89
2023/03/20 04:31:01;;;;;;;77.97;35.28;;;6.70;99.90;;;;;;5018729;28;20036;-89
2023/03/20 04:33:41;;;;;;;79.93;33.22;;;6.80;99.90;;;;;;5028815;28;20035;-88
2023/03/20 04:36:27;;;;;;;78.80;32.88;;;6.70;99.90;;;;;;5017666;28;20057;-88
2023/03/20 04:38:55;;;;;;;91.10;36.10;;;6.70;99.90;;;;;;5042834;28;20025;-88
2023/03/20 04:41:21;;;;;;;83.13;34.30;;;6.70;99.90;;;;;;5026500;28;20075;-88
2023/03/20 04:43:50;;;;;;;71.00;31.52;;;6.70;99.90;;;;;;5043019;28;20123;-88
2023/03/20 04:46:17;;;;;;;76.43;32.47;;;6.70;99.90;;;;;;5027215;28;20102;-88
2023/03/20 04:48:42;;;;;;;75.90;32.92;;;6.70;99.90;;;;;;5025160;28;20032;-88
2023/03/20 04:51:10;;;;;;;80.22;34.63;;;6.70;99.90;;;;;;5035365;28;20107;-89
2023/03/20 04:53:44;;;;;;;82.18;35.80;;;6.70;99.90;;;;;;5023777;28;20029;-89
2023/03/20 04:56:12;;;;;;;79.68;33.67;;;6.70;99.90;;;;;;5019861;28;20072;-88
2023/03/20 04:59:06;;;;;;;85.80;33.28;;;6.70;99.90;;;;;;5023336;28;20025;-88
2023/03/20 05:01:32;;;;;;;87.85;33.90;;;6.70;99.90;;;;;;5023374;28;20029;-88
2023/03/20 05:04:00;;;;;;;79.85;33.90;;;6.60;99.90;;;;;;5039870;28;20029;-88
2023/03/20 05:06:33;;;;;;;84.72;35.53;;;6.60;99.90;;;;;;5023821;28;20531;-89
2023/03/20 05:08:59;;;;;;;90.32;35.38;;;6.70;99.90;;;;;;5031073;28;20036;-88
2023/03/20 05:11:27;;;;;;;88.90;37.03;;;6.70;99.90;;;;;;5038616;28;20057;-87
2023/03/20 05:14:13;;;;;;;101.70;38.20;;;6.70;99.90;;;;;;5041743;28;20029;-89
2023/03/20 05:16:51;;;;;;;90.40;36.40;;;6.60;99.90;;;;;;5039594;28;20488;-88
2023/03/20 05:19:32;;;;;;;94.45;38.10;;;6.70;99.90;;;;;;5025141;28;20021;-88
2023/03/20 05:22:21;;;;;;;88.93;36.20;;;6.70;99.90;;;;;;5040717;28;20480;-88
2023/03/20 05:25:16;;;;;;;99.55;36.10;;;6.60;99.90;;;;;;5003012;28;20109;-88
2023/03/20 05:27:50;;;;;;;98.72;37.03;;;6.60;99.90;;;;;;5024316;28;20083;-88
2023/03/20 05:30:42;;;;;;;95.47;37.88;;;6.60;99.90;;;;;;5040091;28;20040;-91
2023/03/20 05:33:26;;;;;;;114.40;39.47;;;6.60;99.90;;;;;;5038395;28;20060;-90
2023/03/20 05:36:08;;;;;;;;;;;6.70;99.90;;;;;;5041596;28;20073;-91
2023/03/20 05:38:48;;;;;;;103.03;38.30;;;6.70;99.90;;;;;;5025546;28;20000;-90
2023/03/20 05:41:29;;;;;;;99.30;39.63;;;6.70;99.90;;;;;;5040014;28;20437;-91
2023/03/20 05:44:04;;;;;;;123.32;43.00;;;6.80;99.90;;;;;;5041159;28;20067;-91
2023/03/20 05:46:54;;;;;;;124.55;45.65;;;6.80;99.90;;;;;;5032020;28;20033;-91
2023/03/20 05:49:36;;;;;;;106.60;41.17;;;6.80;99.90;;;;;;5024080;28;20061;-90
2023/03/20 05:52:20;;;;;;;157.77;45.00;;;6.80;99.90;;;;;;5043143;28;20040;-91
2023/03/20 05:55:01;;;;;;;125.65;43.85;;;6.80;99.90;;;;;;5026576;28;20376;-90
2023/03/20 05:57:45;;;;;;;204.90;44.85;;;6.90;99.90;;;;;;5042453;28;20055;-91
2023/03/20 06:01:15;;;;;;;159.75;44.17;;;6.90;99.90;;;;;;5026718;28;20471;-91
2023/03/20 06:03:56;;;;;;;106.00;39.92;;;6.90;99.90;;;;;;5040896;28;20032;-91
2023/03/20 06:06:42;;;;;;;134.52;40.65;;;6.90;99.90;;;;;;5041803;28;20033;-91
2023/03/20 06:09:08;;;;;;;168.45;41.28;;;6.90;99.90;;;;;;5040439;28;20104;-92
2023/03/20 06:11:34;;;;;;;236.43;45.00;;;6.90;99.90;;;;;;5021209;28;20030;-91
2023/03/20 06:14:01;;;;;;;195.85;43.35;;;6.90;99.90;;;;;;5023030;28;20036;-91
2023/03/20 06:16:38;;;;;;;231.73;45.78;;;7.00;99.90;;;;;;5039261;28;20052;-91
2023/03/20 06:19:06;;;;;;;334.83;47.50;;;7.00;99.90;;;;;;5040567;28;20112;-92
2023/03/20 06:21:35;;;;;;;212.82;44.38;;;7.00;99.90;;;;;;5039812;28;20063;-92
2023/03/20 06:24:02;;;;;;;169.35;44.50;;;7.00;99.90;;;;;;5040373;28;20518;-90
2023/03/20 06:27:04;;;;;;;116.45;42.17;;;7.10;99.90;;;;;;5022996;28;20525;-91
2023/03/20 06:29:30;;;;;;;248.43;48.25;;;7.10;99.90;;;;;;5023554;28;20087;-92
2023/03/20 06:32:07;;;;;;;233.75;49.90;;;7.10;99.90;;;;;;5039695;28;20547;-91
2023/03/20 06:34:36;;;;;;;372.30;54.03;;;7.10;99.90;;;;;;5024180;28;20017;-91
2023/03/20 06:37:02;;;;;;;338.67;50.95;;;7.10;99.90;;;;;;5039968;28;20047;-92
2023/03/20 06:39:28;;;;;;;179.80;47.05;;;7.20;99.90;;;;;;5039694;28;20045;-91
2023/03/20 06:41:55;;;;;;;208.82;46.03;;;7.30;99.90;;;;;;5039691;28;20029;-92
2023/03/20 06:44:24;;;;;;;200.88;45.40;;;7.20;99.90;;;;;;5039178;28;20080;-91
2023/03/20 06:47:09;;;;;;;159.27;42.67;;;7.20;99.90;;;;;;5024933;28;20031;-91
2023/03/20 06:49:41;;;;;;;522.63;57.58;;;7.10;99.90;;;;;;5022855;28;20396;-91
2023/03/20 06:52:17;;;;;;;371.25;50.90;;;7.10;99.90;;;;;;5039333;28;20028;-91
2023/03/20 06:54:47;;;;;;;123.90;42.97;;;7.00;99.90;;;;;;5025377;28;20033;-92
2023/03/20 06:57:18;;;;;;;285.58;49.33;;;7.00;99.90;;;;;;5039307;28;20021;-90
2023/03/20 06:59:47;;;;;;;268.05;48.50;;;6.90;99.90;;;;;;5039719;28;20029;-91
2023/03/20 07:02:13;;;;;;;394.95;54.70;;;6.90;99.90;;;;;;5033752;28;20079;-90
2023/03/20 07:04:42;;;;;;;456.38;56.00;;;7.00;99.90;;;;;;5038216;28;20436;-92
2023/03/20 07:07:09;;;;;;;181.25;49.13;;;7.00;99.90;;;;;;5033765;28;20029;-90
2023/03/20 07:09:35;;;;;;;150.18;48.95;;;7.10;99.90;;;;;;5015682;28;20037;-90
2023/03/20 07:12:03;;;;;;;131.20;46.80;;;7.20;99.90;;;;;;5020469;28;20040;-91
2023/03/20 07:14:30;;;;;;;168.48;48.47;;;7.30;99.90;;;;;;5021812;28;20013;-90
2023/03/20 07:17:00;;;;;;;138.07;45.20;;;7.40;99.90;;;;;;5020390;28;20021;-90
2023/03/20 07:19:29;;;;;;;162.07;45.10;;;7.50;99.90;;;;;;5021078;28;20053;-89
2023/03/20 07:22:03;;;;;;;259.75;51.38;;;7.50;99.90;;;;;;5036490;28;20016;-92
2023/03/20 07:24:35;;;;;;;285.40;49.70;;;7.40;99.90;;;;;;5037535;28;20487;-90
2023/03/20 07:27:01;;;;;;;195.52;48.38;;;7.30;99.90;;;;;;5038395;28;20044;-90
2023/03/20 07:29:29;;;;;;;476.27;61.17;;;7.40;99.90;;;;;;5038453;28;20415;-91
2023/03/20 07:31:59;;;;;;;356.98;58.05;;;7.30;99.90;;;;;;5035570;28;20092;-90
2023/03/20 07:34:31;;;;;;;242.93;48.53;;;7.40;99.90;;;;;;5021916;28;20028;-90
2023/03/20 07:36:59;;;;;;;301.15;52.35;;;7.30;99.90;;;;;;5037867;28;20025;-90
2023/03/20 07:39:26;;;;;;;143.95;47.15;;;7.20;99.90;;;;;;5021751;28;20029;-90
2023/03/20 07:42:16;;;;;;;429.80;66.40;;;7.30;99.90;;;;;;5034238;28;20032;-91
2023/03/20 07:45:09;;;;;;;180.80;50.05;;;7.20;99.90;;;;;;5036446;28;20033;-91
2023/03/20 07:47:35;;;;;;;305.02;53.28;;;7.20;99.90;;;;;;5021098;28;20132;-90
2023/03/20 07:50:04;;;;;;;267.38;50.88;;;7.10;99.90;;;;;;5020915;28;20036;-92
2023/03/20 07:52:35;;;;;;;282.10;52.63;;;7.10;99.90;;;;;;5020648;28;20543;-91
2023/03/20 07:55:04;;;;;;;511.33;69.38;;;7.10;99.90;;;;;;5037682;28;20025;-90
2023/03/20 07:57:30;;;;;;;346.38;59.63;;;7.10;99.90;;;;;;5021949;28;20029;-91
2023/03/20 07:59:56;;;;;;;480.23;64.95;;;7.00;99.90;;;;;;5023856;28;20060;-91
2023/03/20 08:02:22;;;;;;;270.25;55.65;;;7.10;99.90;;;;;;5022819;28;20029;-91
2023/03/20 08:04:51;;;;;;;249.48;52.85;;;7.10;99.90;;;;;;5039136;28;20064;-93
2023/03/20 08:07:29;;;;;;;325.90;61.15;;;7.10;99.90;;;;;;5019457;28;20067;-92
2023/03/20 08:09:55;;;;;;;452.38;60.75;;;7.10;99.90;;;;;;5043626;28;20383;-90
2023/03/20 08:12:24;;;;;;;261.70;52.83;;;7.10;99.90;;;;;;5037310;28;20080;-90
2023/03/20 08:14:52;;;;;;;282.27;54.55;;;7.20;99.90;;;;;;5047197;28;20395;-90
2023/03/20 08:17:18;;;;;;;268.15;53.72;;;7.30;99.90;;;;;;5023220;28;20013;-91
2023/03/20 08:19:47;;;;;;;325.45;56.38;;;7.40;99.90;;;;;;5021830;28;20025;-91
2023/03/20 08:22:13;;;;;;;211.57;50.90;;;7.40;99.90;;;;;;5038504;28;20035;-90
2023/03/20 08:24:39;;;;;;;125.82;50.17;;;7.50;99.90;;;;;;5024774;28;20384;-90
2023/03/20 08:27:06;;;;;;;206.65;53.63;;;7.60;99.90;;;;;;5041936;28;20041;-91
2023/03/20 08:29:35;;;;;;;212.18;52.53;;;7.80;99.90;;;;;;5025663;28;20021;-90
2023/03/20 08:32:01;;;;;;;156.60;52.38;;;7.80;99.90;;;;;;5022296;28;20021;-92
2023/03/20 08:34:27;;;;;;;132.43;49.72;;;8.00;99.90;;;;;;5024294;28;20474;-90
2023/03/20 08:36:55;;;;;;;247.57;49.20;;;8.00;99.90;;;;;;5025247;28;20035;-89
2023/03/20 08:39:24;;;;;;;;;;;7.80;99.90;;;;;;5043115;28;20079;-92
2023/03/20 08:41:50;;;;;;;225.95;48.08;;;7.70;99.90;;;;;;5027989;28;19917;-91
2023/03/20 08:44:21;;;;;;;175.10;46.40;;;7.60;99.90;;;;;;5028670;28;20025;-93
2023/03/20 08:46:53;;;;;;;183.73;44.72;;;7.70;99.90;;;;;;5039538;28;20032;-89
2023/03/20 08:49:23;;;;;;;155.55;42.00;;;7.70;99.90;;;;;;5034736;28;20044;-91
2023/03/20 08:51:51;;;;;;;238.63;44.67;;;7.80;99.90;;;;;;5023932;28;20032;-91
2023/03/20 08:54:17;;;;;;;90.60;39.03;;;7.70;99.90;;;;;;5025903;28;20013;-91
2023/03/20 08:56:44;;;;;;;135.18;38.92;;;7.80;99.90;;;;;;5040324;28;20484;-90
2023/03/20 08:59:13;;;;;;;187.10;42.58;;;7.80;99.90;;;;;;5040572;28;20048;-90
2023/03/20 09:01:40;;;;;;;94.32;37.83;;;7.80;99.90;;;;;;5023815;28;20032;-91
2023/03/20 09:04:05;;;;;;;128.68;38.30;;;7.70;99.90;;;;;;5025026;28;20029;-92
2023/03/20 09:06:35;;;;;;;79.00;36.40;;;7.70;99.90;;;;;;5040385;28;20028;-91
2023/03/20 09:09:02;;;;;;;78.32;37.63;;;7.80;99.90;;;;;;5032174;28;20044;-91
2023/03/20 09:11:28;;;;;;;143.18;37.35;;;8.00;99.90;;;;;;5040625;28;20028;-90
2023/03/20 09:13:54;;;;;;;78.18;32.28;;;8.00;99.90;;;;;;5024732;28;20148;-89
2023/03/20 09:16:20;;;;;;;75.32;33.35;;;8.00;99.90;;;;;;5040301;28;20028;-90
2023/03/20 09:18:46;;;;;;;98.35;35.08;;;8.00;99.90;;;;;;5030137;28;20024;-87
2023/03/20 09:21:15;;;;;;;90.55;31.08;;;8.10;99.90;;;;;;5024904;28;20039;-90
2023/03/20 09:23:41;;;;;;;80.78;31.75;;;8.00;99.90;;;;;;5042442;28;20029;-90
2023/03/20 09:26:12;;;;;;;77.22;35.88;;;7.90;99.90;;;;;;5040397;28;20021;-90
2023/03/20 09:28:37;;;;;;;87.80;39.13;;;7.90;99.90;;;;;;5042700;28;20064;-90
2023/03/20 09:31:03;;;;;;;96.13;40.90;;;8.00;99.90;;;;;;5040259;28;20063;-92
2023/03/20 09:37:16;;;;;;;77.15;32.33;;;7.80;99.90;;;;;;5055017;28;20056;-91
2023/03/20 09:39:57;;;;;;;66.75;29.80;;;7.80;99.90;;;;;;5021006;28;20033;-91
2023/03/20 09:42:49;;;;;;;85.80;29.40;;;7.80;99.90;;;;;;5040306;28;20029;-90
2023/03/20 09:45:40;;;;;;;68.25;28.05;;;7.80;99.90;;;;;;5024119;28;20029;-90
2023/03/20 09:48:24;;;;;;;113.20;32.05;;;7.70;99.90;;;;;;5039658;28;20483;-91
2023/03/20 09:51:14;;;;;;;77.93;30.52;;;7.60;99.90;;;;;;5024262;28;20033;-91
2023/03/20 09:53:46;;;;;;;91.35;33.75;;;7.60;99.90;;;;;;5024942;28;20494;-90
2023/03/20 09:56:22;;;;;;;88.93;35.63;;;7.60;99.90;;;;;;5024671;28;20021;-90
2023/03/20 09:58:57;;;;;;;92.07;34.28;;;7.60;99.90;;;;;;5024877;28;20083;-90
2023/03/20 10:01:30;;;;;;;71.18;31.02;;;7.50;99.90;;;;;;5040473;28;20040;-90
2023/03/20 10:04:10;;;;;;;77.28;30.65;;;7.50;99.90;;;;;;5023534;28;20056;-91
2023/03/20 10:06:37;;;;;;;75.72;29.95;;;7.40;99.90;;;;;;5023589;28;20044;-90
2023/03/20 10:09:23;;;;;;;111.35;33.95;;;7.40;99.90;;;;;;5030884;28;20368;-90
2023/03/20 10:12:27;;;;;;;118.05;31.88;;;7.50;99.90;;;;;;5021757;28;20029;-90
2023/03/20 10:15:14;;;;;;;113.45;32.72;;;7.40;99.90;;;;;;5040684;28;20383;-90
2023/03/20 10:17:59;;;;;;;102.30;34.83;;;7.30;99.90;;;;;;5020995;28;20060;-90
2023/03/20 10:20:32;;;;;;;105.28;35.85;;;7.30;99.90;;;;;;5035529;28;20028;-91
2023/03/20 10:23:19;;;;;;;113.05;38.03;;;7.30;99.90;;;;;;5023565;28;20426;-88
2023/03/20 10:25:59;;;;;;;101.07;37.00;;;7.30;99.90;;;;;;5041517;28;20383;-92
2023/03/20 10:28:39;;;;;;;85.53;32.88;;;7.30;99.90;;;;;;5022359;28;20033;-92
2023/03/20 10:35:27;;;;;;;90.03;34.30;;;7.50;99.90;;;;;;5046423;28;20043;-91
2023/03/20 10:39:02;;;;;;;80.25;31.30;;;7.50;99.90;;;;;;5036241;28;20021;-94
2023/03/20 10:41:27;;;;;;;81.28;31.48;;;7.60;99.90;;;;;;5039478;28;20025;-91
2023/03/20 10:44:02;;;;;;;95.47;39.40;;;7.50;99.90;;;;;;5025396;28;20056;-93
2023/03/20 10:46:41;;;;;;;77.93;32.28;;;7.50;99.90;;;;;;5021931;28;20090;-92
2023/03/20 10:49:48;;;;;;;85.65;32.28;;;7.50;99.90;;;;;;5040665;28;20029;-89
2023/03/20 10:52:21;;;;;;;84.88;29.80;;;7.50;99.90;;;;;;5011676;28;20064;-94
2023/03/20 10:58:41;;;;;;;82.40;29.80;;;7.60;99.90;;;;;;5057367;28;20035;-92
2023/03/20 11:01:09;;;;;;;131.40;43.05;;;7.50;99.90;;;;;;5025822;28;20080;-92
2023/03/20 11:03:40;;;;;;;95.22;38.20;;;7.60;99.90;;;;;;5038530;28;20091;-92
2023/03/20 11:06:38;;;;;;;86.82;34.65;;;7.70;99.90;;;;;;5035158;28;20472;-91
2023/03/20 11:09:23;;;;;;;87.78;33.35;;;7.80;99.90;;;;;;5021870;28;20035;-89
2023/03/20 11:12:00;;;;;;;73.55;31.02;;;7.80;99.90;;;;;;5039169;28;20476;-90
2023/03/20 11:14:40;;;;;;;67.32;28.70;;;7.90;99.90;;;;;;5035125;28;20432;-94
2023/03/20 11:17:16;;;;;;;71.07;27.45;;;8.00;99.90;;;;;;5038104;28;20033;-92
2023/03/20 11:19:50;;;;;;;62.60;26.48;;;8.00;99.90;;;;;;5047404;28;20361;-94
2023/03/20 11:22:50;;;;;;;72.13;30.08;;;8.10;99.90;;;;;;5028665;28;20028;-92
2023/03/20 11:25:40;;;;;;;63.67;25.98;;;8.30;99.90;;;;;;5047008;28;20036;-92
2023/03/20 11:28:39;;;;;;;65.47;28.42;;;8.50;99.90;;;;;;5026480;28;20037;-91
2023/03/20 11:31:10;;;;;;;48.95;24.30;;;8.60;99.90;;;;;;5024844;28;20033;-92
2023/03/20 11:33:45;;;;;;;49.10;23.40;;;8.50;99.90;;;;;;5041147;28;20357;-93
2023/03/20 11:36:28;;;;;;;46.50;25.60;;;8.40;99.90;;;;;;5035733;28;20092;-92
2023/03/20 11:39:40;;;;;;;47.30;21.73;;;8.60;99.90;;;;;;5023760;28;20392;-92
2023/03/20 11:42:27;;;;;;;46.17;21.33;;;8.80;99.90;;;;;;5024834;28;20031;-93
2023/03/20 11:45:01;;;;;;;37.15;18.80;;;9.10;99.90;;;;;;5040711;28;20060;-93
2023/03/20 11:47:32;;;;;;;37.17;18.88;;;9.20;99.90;;;;;;5021035;28;20468;-92
2023/03/20 11:50:05;;;;;;;29.90;16.60;;;9.20;99.90;;;;;;5023250;28;20468;-94
2023/03/20 11:52:43;;;;;;;29.38;15.93;;;9.40;99.90;;;;;;5025063;28;20032;-93
2023/03/20 11:55:31;;;;;;;31.75;17.35;;;9.90;99.90;;;;;;5041103;28;20478;-92
2023/03/20 11:58:13;;;;;;;35.70;17.80;;;10.10;99.90;;;;;;5024685;28;20032;-94
2023/03/20 12:00:41;;;;;;;26.90;14.15;;;10.40;99.90;;;;;;5025023;28;20045;-93
2023/03/20 12:03:33;;;;;;;30.27;16.13;;;10.40;99.90;;;;;;5037514;28;20016;-92
2023/03/20 12:06:10;;;;;;;30.23;16.33;;;10.40;99.90;;;;;;4997186;28;20072;-93
2023/03/20 12:08:38;;;;;;;28.20;15.80;;;10.40;99.90;;;;;;5024213;28;20487;-93
2023/03/20 12:11:38;;;;;;;25.80;14.98;;;10.70;99.90;;;;;;5027401;28;20088;-93
2023/03/20 12:14:35;;;;;;;21.30;13.00;;;10.90;99.90;;;;;;5029165;28;20119;-93
2023/03/20 12:17:35;;;;;;;22.52;13.57;;;10.90;99.90;;;;;;5045310;28;20021;-92
2023/03/20 12:20:35;;;;;;;24.73;13.30;;;11.00;99.90;;;;;;5038107;28;20025;-90
2023/03/20 12:23:11;;;;;;;22.60;11.98;;;11.20;99.90;;;;;;5028801;28;20041;-91
2023/03/20 12:26:14;;;;;;;23.17;12.23;;;11.20;99.90;;;;;;5028497;28;20033;-92
2023/03/20 12:29:25;;;;;;;22.73;12.13;;;11.50;99.90;;;;;;5042033;28;20040;-91
2023/03/20 12:32:08;;;;;;;19.52;12.18;;;11.80;99.90;;;;;;5026456;28;20025;-93
2023/03/20 12:34:45;;;;;;;17.75;9.80;;;12.20;99.90;;;;;;5027882;28;20040;-91
2023/03/20 12:37:17;;;;;;;19.15;10.57;;;12.50;99.90;;;;;;5036181;28;20500;-91
2023/03/20 12:39:55;;;;;;;23.20;10.55;;;12.50;99.90;;;;;;5023917;28;20058;-91
2023/03/20 12:42:51;;;;;;;19.25;10.55;;;12.20;99.90;;;;;;5024952;28;20025;-91
2023/03/20 12:45:47;;;;;;;16.75;10.18;;;12.00;99.90;;;;;;5046110;28;20024;-90
2023/03/20 12:52:31;;;;;;;23.42;10.13;;;12.00;99.90;;;;;;5060629;28;20419;-91
2023/03/20 12:55:16;;;;;;;18.98;9.82;;;11.70;99.90;;;;;;5026109;28;20033;-91
2023/03/20 12:58:05;;;;;;;25.05;10.05;;;11.60;99.90;;;;;;5042632;28;20029;-91
2023/03/20 13:00:36;;;;;;;15.57;9.80;;;11.60;99.90;;;;;;5024007;28;20025;-91
2023/03/20 13:03:31;;;;;;;21.05;10.75;;;12.00;99.90;;;;;;5028201;28;20033;-90
2023/03/20 13:06:12;;;;;;;15.38;8.30;;;12.10;99.90;;;;;;5025290;28;20072;-90
2023/03/20 13:08:46;;;;;;;17.15;8.57;;;12.20;99.90;;;;;;5024867;28;20025;-90
2023/03/20 13:11:25;;;;;;;26.92;8.73;;;12.10;99.90;;;;;;5028031;28;20038;-90
2023/03/20 13:14:24;;;;;;;13.45;7.35;;;11.90;99.90;;;;;;5026515;28;20033;-90
2023/03/20 13:17:09;;;;;;;16.95;8.35;;;11.90;99.90;;;;;;5018220;28;20033;-89
2023/03/20 13:19:52;;;;;;;14.23;7.13;;;11.70;99.90;;;;;;5026818;28;20056;-89
2023/03/20 13:22:31;;;;;;;16.85;8.05;;;11.70;99.90;;;;;;5023976;28;20488;-90
2023/03/20 13:25:18;;;;;;;20.75;8.13;;;12.10;99.90;;;;;;5040560;28;20104;-91
2023/03/20 13:28:16;;;;;;;17.48;8.18;;;12.30;99.90;;;;;;5037165;28;20048;-90
2023/03/20 13:31:01;;;;;;;16.83;8.55;;;12.10;99.90;;;;;;5000275;28;20040;-91
2023/03/20 13:34:07;;;;;;;28.75;12.88;;;11.80;99.90;;;;;;5022986;28;20099;-90
2023/03/20 13:36:57;;;;;;;12.25;7.32;;;11.70;99.90;;;;;;5029765;28;20033;-88
2023/03/20 13:39:36;;;;;;;24.73;8.30;;;11.50;99.90;;;;;;5028488;28;20036;-89
2023/03/20 13:42:44;;;;;;;11.90;6.47;;;11.30;99.90;;;;;;5029368;28;20121;-90
2023/03/20 13:45:36;;;;;;;25.27;9.88;;;11.00;99.90;;;;;;5018915;28;20028;-90
2023/03/20 13:48:27;;;;;;;26.27;12.27;;;11.20;99.90;;;;;;5022777;28;20033;-89